sensor_id;sensor_type;location;lat;lon;timestamp;temperature;humidity
25906;DHT22;13713;52.552;13.204;2022-09-27T00:01:07;20.00;57.20
25906;DHT22;13713;52.552;13.204;2022-09-27T00:03:33;20.00;57.20
25906;DHT22;13713;52.552;13.204;2022-09-27T00:06:05;20.00;57.20
25906;DHT22;13713;52.552;13.204;2022-09-27T00:08:34;20.00;57.20
25906;DHT22;13713;52.552;13.204;2022-09-27T00:11:05;20.00;57.20
25906;DHT22;13713;52.552;13.204;2022-09-27T00:13:31;20.00;57.20
25906;DHT22;13713;52.552;13.204;2022-09-27T00:16:02;20.00;57.20
25906;DHT22;13713;52.552;13.204;2022-09-27T00:18:30;20.00;57.20
25906;DHT22;13713;52.552;13.204;2022-09-27T00:21:02;20.00;57.20
25906;DHT22;13713;52.552;13.204;2022-09-27T00:23:28;20.00;57.20
25906;DHT22;13713;52.552;13.204;2022-09-27T00:25:57;20.00;57.20
25906;DHT22;13713;52.552;13.204;2022-09-27T00:28:24;20.00;57.20
25906;DHT22;13713;52.552;13.204;2022-09-27T00:30:49;20.00;57.20
25906;DHT22;13713;52.552;13.204;2022-09-27T00:33:15;20.00;57.80
25906;DHT22;13713;52.552;13.204;2022-09-27T00:35:41;20.00;57.30
25906;DHT22;13713;52.552;13.204;2022-09-27T00:38:06;20.00;57.30
25906;DHT22;13713;52.552;13.204;2022-09-27T00:40:32;20.00;57.30
25906;DHT22;13713;52.552;13.204;2022-09-27T00:42:59;20.00;57.30
25906;DHT22;13713;52.552;13.204;2022-09-27T00:45:24;20.00;57.30
25906;DHT22;13713;52.552;13.204;2022-09-27T00:48:00;20.00;57.30
25906;DHT22;13713;52.552;13.204;2022-09-27T00:50:33;20.00;57.30
25906;DHT22;13713;52.552;13.204;2022-09-27T00:53:03;20.00;57.30
25906;DHT22;13713;52.552;13.204;2022-09-27T00:55:58;20.00;57.30
25906;DHT22;13713;52.552;13.204;2022-09-27T00:58:29;20.00;57.30
25906;DHT22;13713;52.552;13.204;2022-09-27T01:00:58;20.00;57.90
25906;DHT22;13713;52.552;13.204;2022-09-27T01:03:51;20.00;57.30
25906;DHT22;13713;52.552;13.204;2022-09-27T01:06:20;19.90;57.30
25906;DHT22;13713;52.552;13.204;2022-09-27T01:08:47;19.90;57.30
25906;DHT22;13713;52.552;13.204;2022-09-27T01:11:18;19.90;57.30
25906;DHT22;13713;52.552;13.204;2022-09-27T01:30:18;19.90;57.30
25906;DHT22;13713;52.552;13.204;2022-09-27T01:38:19;19.90;57.30
25906;DHT22;13713;52.552;13.204;2022-09-27T01:40:49;19.90;57.40
25906;DHT22;13713;52.552;13.204;2022-09-27T01:46:53;19.90;57.30
25906;DHT22;13713;52.552;13.204;2022-09-27T01:50:08;19.90;57.30
25906;DHT22;13713;52.552;13.204;2022-09-27T01:52:46;19.90;57.40
25906;DHT22;13713;52.552;13.204;2022-09-27T01:55:15;19.90;57.40
25906;DHT22;13713;52.552;13.204;2022-09-27T01:58:31;20.00;57.40
25906;DHT22;13713;52.552;13.204;2022-09-27T02:00:59;19.90;58.00
25906;DHT22;13713;52.552;13.204;2022-09-27T02:03:42;19.90;57.40
25906;DHT22;13713;52.552;13.204;2022-09-27T02:06:38;19.90;57.40
25906;DHT22;13713;52.552;13.204;2022-09-27T02:09:37;19.80;57.30
25906;DHT22;13713;52.552;13.204;2022-09-27T02:12:24;19.90;57.40
25906;DHT22;13713;52.552;13.204;2022-09-27T02:15:02;20.00;57.40
25906;DHT22;13713;52.552;13.204;2022-09-27T02:22:51;19.90;57.40
25906;DHT22;13713;52.552;13.204;2022-09-27T02:25:29;19.90;57.40
25906;DHT22;13713;52.552;13.204;2022-09-27T02:28:08;19.80;57.30
25906;DHT22;13713;52.552;13.204;2022-09-27T02:30:40;19.80;57.30
25906;DHT22;13713;52.552;13.204;2022-09-27T02:33:23;19.80;57.30
25906;DHT22;13713;52.552;13.204;2022-09-27T02:35:49;19.80;57.30
25906;DHT22;13713;52.552;13.204;2022-09-27T02:38:15;19.70;57.30
25906;DHT22;13713;52.552;13.204;2022-09-27T02:40:45;19.80;57.40
25906;DHT22;13713;52.552;13.204;2022-09-27T02:43:13;19.80;57.30
25906;DHT22;13713;52.552;13.204;2022-09-27T02:46:02;19.90;57.40
25906;DHT22;13713;52.552;13.204;2022-09-27T02:54:34;19.80;57.30
25906;DHT22;13713;52.552;13.204;2022-09-27T02:57:35;19.80;57.40
25906;DHT22;13713;52.552;13.204;2022-09-27T03:00:20;19.80;57.40
25906;DHT22;13713;52.552;13.204;2022-09-27T03:03:08;19.80;57.30
25906;DHT22;13713;52.552;13.204;2022-09-27T03:05:55;19.80;57.40
25906;DHT22;13713;52.552;13.204;2022-09-27T03:08:24;19.80;57.30
25906;DHT22;13713;52.552;13.204;2022-09-27T03:10:49;19.80;57.40
25906;DHT22;13713;52.552;13.204;2022-09-27T03:13:15;19.80;57.40
25906;DHT22;13713;52.552;13.204;2022-09-27T03:15:42;19.80;57.40
25906;DHT22;13713;52.552;13.204;2022-09-27T03:18:16;19.80;57.40
25906;DHT22;13713;52.552;13.204;2022-09-27T03:21:11;19.80;57.40
25906;DHT22;13713;52.552;13.204;2022-09-27T03:23:37;19.80;57.40
25906;DHT22;13713;52.552;13.204;2022-09-27T03:26:03;19.80;57.50
25906;DHT22;13713;52.552;13.204;2022-09-27T03:28:28;19.80;57.40
25906;DHT22;13713;52.552;13.204;2022-09-27T03:30:54;19.80;57.50
25906;DHT22;13713;52.552;13.204;2022-09-27T03:33:43;19.80;57.50
25906;DHT22;13713;52.552;13.204;2022-09-27T03:36:10;19.80;57.50
25906;DHT22;13713;52.552;13.204;2022-09-27T03:38:36;19.80;57.50
25906;DHT22;13713;52.552;13.204;2022-09-27T03:41:03;19.80;57.50
25906;DHT22;13713;52.552;13.204;2022-09-27T03:43:29;19.80;57.50
25906;DHT22;13713;52.552;13.204;2022-09-27T03:45:58;19.80;57.50
25906;DHT22;13713;52.552;13.204;2022-09-27T03:48:25;19.80;57.50
25906;DHT22;13713;52.552;13.204;2022-09-27T03:50:50;19.80;57.50
25906;DHT22;13713;52.552;13.204;2022-09-27T03:53:16;19.80;57.50
25906;DHT22;13713;52.552;13.204;2022-09-27T03:55:44;19.80;57.50
25906;DHT22;13713;52.552;13.204;2022-09-27T03:58:10;19.80;57.50
25906;DHT22;13713;52.552;13.204;2022-09-27T04:00:36;19.80;57.50
25906;DHT22;13713;52.552;13.204;2022-09-27T04:03:02;19.80;57.50
25906;DHT22;13713;52.552;13.204;2022-09-27T04:05:50;19.80;57.50
25906;DHT22;13713;52.552;13.204;2022-09-27T04:08:20;19.80;57.60
25906;DHT22;13713;52.552;13.204;2022-09-27T04:10:47;19.80;57.60
25906;DHT22;13713;52.552;13.204;2022-09-27T04:13:12;19.80;57.60
25906;DHT22;13713;52.552;13.204;2022-09-27T04:15:46;19.80;57.60
25906;DHT22;13713;52.552;13.204;2022-09-27T04:18:31;19.80;57.60
25906;DHT22;13713;52.552;13.204;2022-09-27T04:21:00;19.80;57.60
25906;DHT22;13713;52.552;13.204;2022-09-27T04:23:26;19.60;57.50
25906;DHT22;13713;52.552;13.204;2022-09-27T04:25:53;19.70;57.50
25906;DHT22;13713;52.552;13.204;2022-09-27T04:28:29;19.70;57.50
25906;DHT22;13713;52.552;13.204;2022-09-27T04:30:56;19.70;57.50
25906;DHT22;13713;52.552;13.204;2022-09-27T04:33:34;19.80;57.60
25906;DHT22;13713;52.552;13.204;2022-09-27T04:36:04;19.80;57.60
25906;DHT22;13713;52.552;13.204;2022-09-27T04:39:06;19.80;57.60
25906;DHT22;13713;52.552;13.204;2022-09-27T04:41:35;19.70;57.50
25906;DHT22;13713;52.552;13.204;2022-09-27T04:44:01;19.70;57.50
25906;DHT22;13713;52.552;13.204;2022-09-27T04:46:28;19.70;57.50
25906;DHT22;13713;52.552;13.204;2022-09-27T04:48:59;19.80;57.50
25906;DHT22;13713;52.552;13.204;2022-09-27T04:51:26;19.70;57.40
25906;DHT22;13713;52.552;13.204;2022-09-27T04:53:55;19.80;57.50
25906;DHT22;13713;52.552;13.204;2022-09-27T04:56:25;19.70;57.50
25906;DHT22;13713;52.552;13.204;2022-09-27T04:58:52;19.70;57.50
25906;DHT22;13713;52.552;13.204;2022-09-27T05:01:18;19.70;57.50
25906;DHT22;13713;52.552;13.204;2022-09-27T05:04:02;19.70;57.50
25906;DHT22;13713;52.552;13.204;2022-09-27T05:06:29;19.70;57.50
25906;DHT22;13713;52.552;13.204;2022-09-27T05:08:59;19.70;57.50
25906;DHT22;13713;52.552;13.204;2022-09-27T05:11:26;19.70;57.50
25906;DHT22;13713;52.552;13.204;2022-09-27T05:14:10;19.70;57.60
25906;DHT22;13713;52.552;13.204;2022-09-27T05:16:48;19.70;57.60
25906;DHT22;13713;52.552;13.204;2022-09-27T05:19:33;19.80;57.70
25906;DHT22;13713;52.552;13.204;2022-09-27T05:22:10;19.70;57.70
25906;DHT22;13713;52.552;13.204;2022-09-27T05:24:36;19.70;57.70
25906;DHT22;13713;52.552;13.204;2022-09-27T05:27:03;19.70;57.70
25906;DHT22;13713;52.552;13.204;2022-09-27T05:29:33;19.70;57.80
25906;DHT22;13713;52.552;13.204;2022-09-27T05:32:07;19.70;57.80
25906;DHT22;13713;52.552;13.204;2022-09-27T05:34:33;19.70;57.80
25906;DHT22;13713;52.552;13.204;2022-09-27T05:36:59;19.80;58.00
25906;DHT22;13713;52.552;13.204;2022-09-27T05:39:29;19.80;58.00
25906;DHT22;13713;52.552;13.204;2022-09-27T05:41:54;19.80;58.00
25906;DHT22;13713;52.552;13.204;2022-09-27T05:44:20;19.80;58.10
25906;DHT22;13713;52.552;13.204;2022-09-27T05:46:59;19.80;58.20
25906;DHT22;13713;52.552;13.204;2022-09-27T05:49:28;19.80;58.30
25906;DHT22;13713;52.552;13.204;2022-09-27T05:51:54;19.80;58.40
25906;DHT22;13713;52.552;13.204;2022-09-27T05:54:20;19.90;58.30
25906;DHT22;13713;52.552;13.204;2022-09-27T05:56:46;19.90;58.30
25906;DHT22;13713;52.552;13.204;2022-09-27T05:59:24;19.90;58.40
25906;DHT22;13713;52.552;13.204;2022-09-27T06:02:13;19.90;58.40
25906;DHT22;13713;52.552;13.204;2022-09-27T06:04:57;19.90;58.40
25906;DHT22;13713;52.552;13.204;2022-09-27T06:07:45;19.90;58.40
25906;DHT22;13713;52.552;13.204;2022-09-27T06:10:19;19.80;58.30
25906;DHT22;13713;52.552;13.204;2022-09-27T06:12:46;19.90;58.30
25906;DHT22;13713;52.552;13.204;2022-09-27T06:15:25;19.90;58.30
25906;DHT22;13713;52.552;13.204;2022-09-27T06:17:50;19.90;58.30
25906;DHT22;13713;52.552;13.204;2022-09-27T06:20:18;19.80;58.20
25906;DHT22;13713;52.552;13.204;2022-09-27T06:22:46;19.80;58.30
25906;DHT22;13713;52.552;13.204;2022-09-27T06:25:12;19.80;58.30
25906;DHT22;13713;52.552;13.204;2022-09-27T06:27:54;19.80;58.40
25906;DHT22;13713;52.552;13.204;2022-09-27T06:30:24;19.80;58.40
25906;DHT22;13713;52.552;13.204;2022-09-27T06:32:57;19.80;58.60
25906;DHT22;13713;52.552;13.204;2022-09-27T06:35:30;19.80;58.60
25906;DHT22;13713;52.552;13.204;2022-09-27T06:37:56;19.80;58.60
25906;DHT22;13713;52.552;13.204;2022-09-27T06:40:23;19.70;58.60
25906;DHT22;13713;52.552;13.204;2022-09-27T06:43:09;19.80;58.80
25906;DHT22;13713;52.552;13.204;2022-09-27T06:45:54;19.90;58.80
25906;DHT22;13713;52.552;13.204;2022-09-27T06:48:30;19.90;58.90
25906;DHT22;13713;52.552;13.204;2022-09-27T06:51:14;19.90;59.00
25906;DHT22;13713;52.552;13.204;2022-09-27T06:53:41;19.90;59.20
25906;DHT22;13713;52.552;13.204;2022-09-27T06:56:07;19.80;59.10
25906;DHT22;13713;52.552;13.204;2022-09-27T06:58:43;20.00;59.20
25906;DHT22;13713;52.552;13.204;2022-09-27T07:01:43;19.90;59.30
25906;DHT22;13713;52.552;13.204;2022-09-27T07:04:28;20.00;59.30
25906;DHT22;13713;52.552;13.204;2022-09-27T07:07:14;20.00;59.50
25906;DHT22;13713;52.552;13.204;2022-09-27T07:09:44;20.10;59.50
25906;DHT22;13713;52.552;13.204;2022-09-27T07:12:10;20.10;59.50
25906;DHT22;13713;52.552;13.204;2022-09-27T07:14:37;20.10;59.70
25906;DHT22;13713;52.552;13.204;2022-09-27T07:17:04;20.10;59.60
25906;DHT22;13713;52.552;13.204;2022-09-27T07:19:35;20.10;59.70
25906;DHT22;13713;52.552;13.204;2022-09-27T07:22:01;20.20;59.70
25906;DHT22;13713;52.552;13.204;2022-09-27T07:24:27;20.20;59.80
25906;DHT22;13713;52.552;13.204;2022-09-27T07:26:54;20.20;59.80
25906;DHT22;13713;52.552;13.204;2022-09-27T07:29:21;20.20;59.80
25906;DHT22;13713;52.552;13.204;2022-09-27T07:31:49;20.30;59.90
25906;DHT22;13713;52.552;13.204;2022-09-27T07:34:14;20.30;59.90
25906;DHT22;13713;52.552;13.204;2022-09-27T07:36:43;20.30;60.00
25906;DHT22;13713;52.552;13.204;2022-09-27T07:39:09;20.40;60.20
25906;DHT22;13713;52.552;13.204;2022-09-27T07:41:35;20.40;60.20
25906;DHT22;13713;52.552;13.204;2022-09-27T07:44:00;20.40;60.40
25906;DHT22;13713;52.552;13.204;2022-09-27T07:46:29;20.40;60.60
25906;DHT22;13713;52.552;13.204;2022-09-27T07:49:06;20.40;60.60
25906;DHT22;13713;52.552;13.204;2022-09-27T07:51:50;20.50;60.60
25906;DHT22;13713;52.552;13.204;2022-09-27T07:54:45;20.50;60.80
25906;DHT22;13713;52.552;13.204;2022-09-27T07:57:31;20.50;60.90
25906;DHT22;13713;52.552;13.204;2022-09-27T07:59:59;20.50;60.80
25906;DHT22;13713;52.552;13.204;2022-09-27T08:02:24;20.50;61.30
25906;DHT22;13713;52.552;13.204;2022-09-27T08:04:51;20.50;61.40
25906;DHT22;13713;52.552;13.204;2022-09-27T08:07:18;20.60;61.40
25906;DHT22;13713;52.552;13.204;2022-09-27T08:09:47;20.60;61.40
25906;DHT22;13713;52.552;13.204;2022-09-27T08:12:15;20.60;61.50
25906;DHT22;13713;52.552;13.204;2022-09-27T08:14:40;20.60;61.20
25906;DHT22;13713;52.552;13.204;2022-09-27T08:17:09;20.60;61.60
25906;DHT22;13713;52.552;13.204;2022-09-27T08:19:56;20.70;61.80
25906;DHT22;13713;52.552;13.204;2022-09-27T08:22:44;20.70;61.80
25906;DHT22;13713;52.552;13.204;2022-09-27T08:25:30;20.70;62.10
25906;DHT22;13713;52.552;13.204;2022-09-27T08:28:03;20.80;62.20
25906;DHT22;13713;52.552;13.204;2022-09-27T08:30:40;20.80;62.70
25906;DHT22;13713;52.552;13.204;2022-09-27T08:33:07;20.80;62.40
25906;DHT22;13713;52.552;13.204;2022-09-27T08:35:34;20.80;62.50
25906;DHT22;13713;52.552;13.204;2022-09-27T08:38:02;20.80;62.60
25906;DHT22;13713;52.552;13.204;2022-09-27T08:40:53;20.80;62.50
25906;DHT22;13713;52.552;13.204;2022-09-27T08:48:27;20.90;63.00
25906;DHT22;13713;52.552;13.204;2022-09-27T08:50:54;20.90;62.90
25906;DHT22;13713;52.552;13.204;2022-09-27T08:56:02;20.90;62.90
25906;DHT22;13713;52.552;13.204;2022-09-27T08:58:36;21.00;62.90
25906;DHT22;13713;52.552;13.204;2022-09-27T09:01:15;21.00;63.00
25906;DHT22;13713;52.552;13.204;2022-09-27T09:03:54;21.00;63.10
25906;DHT22;13713;52.552;13.204;2022-09-27T09:06:25;21.00;63.10
25906;DHT22;13713;52.552;13.204;2022-09-27T09:24:25;21.20;63.70
25906;DHT22;13713;52.552;13.204;2022-09-27T09:35:38;21.20;64.00
25906;DHT22;13713;52.552;13.204;2022-09-27T09:38:05;21.20;63.90
25906;DHT22;13713;52.552;13.204;2022-09-27T09:43:17;21.20;63.80
25906;DHT22;13713;52.552;13.204;2022-09-27T09:45:49;21.30;64.00
25906;DHT22;13713;52.552;13.204;2022-09-27T09:48:27;21.30;64.20
25906;DHT22;13713;52.552;13.204;2022-09-27T09:50:57;21.30;64.20
25906;DHT22;13713;52.552;13.204;2022-09-27T09:56:09;21.30;64.10
25906;DHT22;13713;52.552;13.204;2022-09-27T09:58:48;21.40;64.40
25906;DHT22;13713;52.552;13.204;2022-09-27T10:01:34;21.40;64.70
25906;DHT22;13713;52.552;13.204;2022-09-27T10:04:01;21.40;64.20
25906;DHT22;13713;52.552;13.204;2022-09-27T10:06:27;21.40;64.30
25906;DHT22;13713;52.552;13.204;2022-09-27T10:08:55;21.40;64.40
25906;DHT22;13713;52.552;13.204;2022-09-27T10:11:45;21.50;64.40
25906;DHT22;13713;52.552;13.204;2022-09-27T10:14:22;21.50;64.40
25906;DHT22;13713;52.552;13.204;2022-09-27T10:16:59;21.50;64.60
25906;DHT22;13713;52.552;13.204;2022-09-27T10:19:33;21.50;64.50
25906;DHT22;13713;52.552;13.204;2022-09-27T10:22:13;21.60;64.60
25906;DHT22;13713;52.552;13.204;2022-09-27T10:24:55;21.60;64.30
25906;DHT22;13713;52.552;13.204;2022-09-27T10:27:45;21.60;63.90
25906;DHT22;13713;52.552;13.204;2022-09-27T10:30:30;21.60;64.10
25906;DHT22;13713;52.552;13.204;2022-09-27T10:33:03;21.70;64.40
25906;DHT22;13713;52.552;13.204;2022-09-27T10:35:42;21.70;64.10
25906;DHT22;13713;52.552;13.204;2022-09-27T10:38:31;21.70;64.10
25906;DHT22;13713;52.552;13.204;2022-09-27T10:47:05;21.70;64.20
25906;DHT22;13713;52.552;13.204;2022-09-27T10:49:39;21.80;64.50
25906;DHT22;13713;52.552;13.204;2022-09-27T10:52:19;21.80;64.60
25906;DHT22;13713;52.552;13.204;2022-09-27T10:54:57;21.80;64.40
25906;DHT22;13713;52.552;13.204;2022-09-27T10:57:27;21.80;64.60
25906;DHT22;13713;52.552;13.204;2022-09-27T11:00:06;21.70;64.50
25906;DHT22;13713;52.552;13.204;2022-09-27T11:02:35;21.80;64.70
25906;DHT22;13713;52.552;13.204;2022-09-27T11:05:13;21.80;64.70
25906;DHT22;13713;52.552;13.204;2022-09-27T11:07:54;21.80;64.60
25906;DHT22;13713;52.552;13.204;2022-09-27T11:10:31;21.90;64.80
25906;DHT22;13713;52.552;13.204;2022-09-27T11:13:17;21.90;64.90
25906;DHT22;13713;52.552;13.204;2022-09-27T11:16:18;21.90;64.80
25906;DHT22;13713;52.552;13.204;2022-09-27T11:21:52;21.90;64.60
25906;DHT22;13713;52.552;13.204;2022-09-27T11:30:08;21.90;63.40
25906;DHT22;13713;52.552;13.204;2022-09-27T11:38:15;21.80;62.80
25906;DHT22;13713;52.552;13.204;2022-09-27T11:40:53;21.80;62.90
25906;DHT22;13713;52.552;13.204;2022-09-27T11:46:28;21.80;63.10
25906;DHT22;13713;52.552;13.204;2022-09-27T11:57:29;21.80;63.50
25906;DHT22;13713;52.552;13.204;2022-09-27T12:06:02;21.80;63.80
25906;DHT22;13713;52.552;13.204;2022-09-27T12:11:49;21.90;64.30
25906;DHT22;13713;52.552;13.204;2022-09-27T12:17:04;21.90;64.30
25906;DHT22;13713;52.552;13.204;2022-09-27T12:19:37;21.90;64.50
25906;DHT22;13713;52.552;13.204;2022-09-27T12:22:17;21.90;64.10
25906;DHT22;13713;52.552;13.204;2022-09-27T12:24:45;21.90;64.10
25906;DHT22;13713;52.552;13.204;2022-09-27T12:27:54;21.90;64.10
25906;DHT22;13713;52.552;13.204;2022-09-27T12:30:22;22.00;64.40
25906;DHT22;13713;52.552;13.204;2022-09-27T12:33:03;22.00;64.40
25906;DHT22;13713;52.552;13.204;2022-09-27T12:35:35;22.00;64.40
25906;DHT22;13713;52.552;13.204;2022-09-27T12:38:34;22.00;64.30
25906;DHT22;13713;52.552;13.204;2022-09-27T12:41:04;22.00;64.30
25906;DHT22;13713;52.552;13.204;2022-09-27T12:43:43;22.00;64.40
25906;DHT22;13713;52.552;13.204;2022-09-27T12:46:39;22.10;64.50
25906;DHT22;13713;52.552;13.204;2022-09-27T12:51:41;22.10;64.70
25906;DHT22;13713;52.552;13.204;2022-09-27T12:57:22;22.10;64.50
25906;DHT22;13713;52.552;13.204;2022-09-27T13:00:00;22.10;64.60
25906;DHT22;13713;52.552;13.204;2022-09-27T13:03:02;22.10;64.70
25906;DHT22;13713;52.552;13.204;2022-09-27T13:05:43;22.10;64.50
25906;DHT22;13713;52.552;13.204;2022-09-27T13:08:49;22.10;64.50
25906;DHT22;13713;52.552;13.204;2022-09-27T13:11:37;22.20;64.50
25906;DHT22;13713;52.552;13.204;2022-09-27T13:14:14;22.20;64.40
25906;DHT22;13713;52.552;13.204;2022-09-27T13:16:42;22.20;64.40
25906;DHT22;13713;52.552;13.204;2022-09-27T13:22:53;22.20;64.80
25906;DHT22;13713;52.552;13.204;2022-09-27T13:30:55;22.20;64.90
25906;DHT22;13713;52.552;13.204;2022-09-27T13:36:31;22.20;64.80
25906;DHT22;13713;52.552;13.204;2022-09-27T13:42:30;22.20;64.70
25906;DHT22;13713;52.552;13.204;2022-09-27T13:45:18;22.30;64.70
25906;DHT22;13713;52.552;13.204;2022-09-27T13:47:46;22.30;64.90
25906;DHT22;13713;52.552;13.204;2022-09-27T13:50:25;22.30;65.00
25906;DHT22;13713;52.552;13.204;2022-09-27T13:53:04;22.30;64.40
25906;DHT22;13713;52.552;13.204;2022-09-27T13:55:46;22.30;64.30
25906;DHT22;13713;52.552;13.204;2022-09-27T14:01:42;22.20;63.80
25906;DHT22;13713;52.552;13.204;2022-09-27T14:04:17;22.20;63.80
25906;DHT22;13713;52.552;13.204;2022-09-27T14:06:48;22.20;63.70
25906;DHT22;13713;52.552;13.204;2022-09-27T14:09:37;22.30;63.80
25906;DHT22;13713;52.552;13.204;2022-09-27T14:12:19;22.20;63.80
25906;DHT22;13713;52.552;13.204;2022-09-27T14:14:47;22.10;63.70
25906;DHT22;13713;52.552;13.204;2022-09-27T14:17:14;22.10;63.70
25906;DHT22;13713;52.552;13.204;2022-09-27T14:19:42;22.10;63.50
25906;DHT22;13713;52.552;13.204;2022-09-27T14:22:18;22.10;63.40
25906;DHT22;13713;52.552;13.204;2022-09-27T14:24:56;22.10;63.30
25906;DHT22;13713;52.552;13.204;2022-09-27T14:27:34;22.00;63.30
25906;DHT22;13713;52.552;13.204;2022-09-27T14:30:21;22.00;63.30
25906;DHT22;13713;52.552;13.204;2022-09-27T14:32:54;22.00;63.30
25906;DHT22;13713;52.552;13.204;2022-09-27T14:35:35;22.00;63.40
25906;DHT22;13713;52.552;13.204;2022-09-27T14:38:37;22.00;63.30
25906;DHT22;13713;52.552;13.204;2022-09-27T14:41:06;21.90;63.30
25906;DHT22;13713;52.552;13.204;2022-09-27T14:43:34;21.90;63.30
25906;DHT22;13713;52.552;13.204;2022-09-27T14:46:04;21.90;63.30
25906;DHT22;13713;52.552;13.204;2022-09-27T14:48:34;21.90;63.30
25906;DHT22;13713;52.552;13.204;2022-09-27T14:53:44;21.90;63.30
25906;DHT22;13713;52.552;13.204;2022-09-27T14:56:22;21.80;63.30
25906;DHT22;13713;52.552;13.204;2022-09-27T15:01:57;21.80;63.30
25906;DHT22;13713;52.552;13.204;2022-09-27T15:04:25;21.80;63.30
25906;DHT22;13713;52.552;13.204;2022-09-27T15:06:53;21.80;63.30
25906;DHT22;13713;52.552;13.204;2022-09-27T15:09:20;21.80;63.30
25906;DHT22;13713;52.552;13.204;2022-09-27T15:11:52;21.80;64.10
25906;DHT22;13713;52.552;13.204;2022-09-27T15:14:20;21.80;63.30
25906;DHT22;13713;52.552;13.204;2022-09-27T15:16:48;21.80;63.30
25906;DHT22;13713;52.552;13.204;2022-09-27T15:19:15;21.80;63.30
25906;DHT22;13713;52.552;13.204;2022-09-27T15:21:43;21.70;63.20
25906;DHT22;13713;52.552;13.204;2022-09-27T15:24:35;21.70;63.20
25906;DHT22;13713;52.552;13.204;2022-09-27T15:27:01;21.70;63.20
25906;DHT22;13713;52.552;13.204;2022-09-27T15:29:27;21.70;63.30
25906;DHT22;13713;52.552;13.204;2022-09-27T15:32:02;21.70;63.20
25906;DHT22;13713;52.552;13.204;2022-09-27T15:34:28;21.70;63.20
25906;DHT22;13713;52.552;13.204;2022-09-27T15:36:57;21.70;63.20
25906;DHT22;13713;52.552;13.204;2022-09-27T15:39:40;21.70;63.30
25906;DHT22;13713;52.552;13.204;2022-09-27T15:42:13;21.70;63.30
25906;DHT22;13713;52.552;13.204;2022-09-27T15:52:53;21.70;63.40
25906;DHT22;13713;52.552;13.204;2022-09-27T15:55:23;21.60;63.30
25906;DHT22;13713;52.552;13.204;2022-09-27T15:58:01;21.60;63.30
25906;DHT22;13713;52.552;13.204;2022-09-27T16:00:28;21.60;63.20
25906;DHT22;13713;52.552;13.204;2022-09-27T16:02:54;21.60;63.20
25906;DHT22;13713;52.552;13.204;2022-09-27T16:05:20;21.60;63.20
25906;DHT22;13713;52.552;13.204;2022-09-27T16:07:48;21.60;63.30
25906;DHT22;13713;52.552;13.204;2022-09-27T16:10:16;21.50;63.20
25906;DHT22;13713;52.552;13.204;2022-09-27T16:12:43;21.50;63.20
25906;DHT22;13713;52.552;13.204;2022-09-27T16:15:12;21.50;63.10
25906;DHT22;13713;52.552;13.204;2022-09-27T16:17:37;21.50;63.20
25906;DHT22;13713;52.552;13.204;2022-09-27T16:20:05;21.50;63.20
25906;DHT22;13713;52.552;13.204;2022-09-27T16:22:31;21.50;63.20
25906;DHT22;13713;52.552;13.204;2022-09-27T16:24:56;21.50;63.20
25906;DHT22;13713;52.552;13.204;2022-09-27T16:27:26;21.50;63.20
25906;DHT22;13713;52.552;13.204;2022-09-27T16:29:54;21.40;63.10
25906;DHT22;13713;52.552;13.204;2022-09-27T16:32:22;21.40;63.10
25906;DHT22;13713;52.552;13.204;2022-09-27T16:34:48;21.50;63.20
25906;DHT22;13713;52.552;13.204;2022-09-27T16:37:13;21.50;63.20
25906;DHT22;13713;52.552;13.204;2022-09-27T16:39:39;21.40;63.10
25906;DHT22;13713;52.552;13.204;2022-09-27T16:42:05;21.40;63.20
25906;DHT22;13713;52.552;13.204;2022-09-27T16:44:32;21.40;63.10
25906;DHT22;13713;52.552;13.204;2022-09-27T16:47:04;21.40;63.10
25906;DHT22;13713;52.552;13.204;2022-09-27T16:49:32;21.40;63.10
25906;DHT22;13713;52.552;13.204;2022-09-27T16:52:17;21.40;63.20
25906;DHT22;13713;52.552;13.204;2022-09-27T16:54:42;21.40;63.20
25906;DHT22;13713;52.552;13.204;2022-09-27T16:57:08;21.40;63.20
25906;DHT22;13713;52.552;13.204;2022-09-27T16:59:34;21.40;63.20
25906;DHT22;13713;52.552;13.204;2022-09-27T17:01:59;21.40;63.20
25906;DHT22;13713;52.552;13.204;2022-09-27T17:04:26;21.30;63.20
25906;DHT22;13713;52.552;13.204;2022-09-27T17:06:53;21.30;63.20
25906;DHT22;13713;52.552;13.204;2022-09-27T17:09:20;21.30;63.20
25906;DHT22;13713;52.552;13.204;2022-09-27T17:11:45;21.30;63.20
25906;DHT22;13713;52.552;13.204;2022-09-27T17:14:12;21.30;63.20
25906;DHT22;13713;52.552;13.204;2022-09-27T17:16:42;21.30;63.20
25906;DHT22;13713;52.552;13.204;2022-09-27T17:19:08;21.30;63.30
25906;DHT22;13713;52.552;13.204;2022-09-27T17:21:38;21.30;63.20
25906;DHT22;13713;52.552;13.204;2022-09-27T17:24:04;21.30;64.10
25906;DHT22;13713;52.552;13.204;2022-09-27T17:26:30;21.30;63.20
25906;DHT22;13713;52.552;13.204;2022-09-27T17:28:57;21.30;63.30
25906;DHT22;13713;52.552;13.204;2022-09-27T17:31:26;21.20;63.20
25906;DHT22;13713;52.552;13.204;2022-09-27T17:33:53;21.20;63.20
25906;DHT22;13713;52.552;13.204;2022-09-27T17:36:22;21.20;63.20
25906;DHT22;13713;52.552;13.204;2022-09-27T17:38:49;21.20;63.20
25906;DHT22;13713;52.552;13.204;2022-09-27T17:41:17;21.20;63.20
25906;DHT22;13713;52.552;13.204;2022-09-27T17:43:44;21.20;63.20
25906;DHT22;13713;52.552;13.204;2022-09-27T17:46:18;21.20;63.20
25906;DHT22;13713;52.552;13.204;2022-09-27T17:48:44;21.20;63.30
25906;DHT22;13713;52.552;13.204;2022-09-27T17:51:30;21.20;63.30
25906;DHT22;13713;52.552;13.204;2022-09-27T17:53:56;21.20;63.30
25906;DHT22;13713;52.552;13.204;2022-09-27T17:56:22;21.20;63.20
25906;DHT22;13713;52.552;13.204;2022-09-27T17:58:53;21.20;63.30
25906;DHT22;13713;52.552;13.204;2022-09-27T18:01:21;21.20;63.20
25906;DHT22;13713;52.552;13.204;2022-09-27T18:03:47;21.20;63.20
25906;DHT22;13713;52.552;13.204;2022-09-27T18:06:14;21.10;63.20
25906;DHT22;13713;52.552;13.204;2022-09-27T18:08:41;21.10;63.20
25906;DHT22;13713;52.552;13.204;2022-09-27T18:11:10;21.10;63.20
25906;DHT22;13713;52.552;13.204;2022-09-27T18:13:37;21.10;63.20
25906;DHT22;13713;52.552;13.204;2022-09-27T18:16:07;21.10;63.20
25906;DHT22;13713;52.552;13.204;2022-09-27T18:18:34;21.10;63.20
25906;DHT22;13713;52.552;13.204;2022-09-27T18:21:03;21.10;63.20
25906;DHT22;13713;52.552;13.204;2022-09-27T18:23:30;21.10;63.20
25906;DHT22;13713;52.552;13.204;2022-09-27T18:25:56;21.10;63.20
25906;DHT22;13713;52.552;13.204;2022-09-27T18:28:26;21.10;63.20